sensor_id;sensor_type;location;lat;lon;timestamp;P1;durP1;ratioP1;P2;durP2;ratioP2
44774;SDS011;31340;51.402;0.016;2022-10-31T00:03:54;18.77;;;5.78;;
44774;SDS011;31340;51.402;0.016;2022-10-31T00:06:22;17.30;;;4.85;;
44774;SDS011;31340;51.402;0.016;2022-10-31T00:08:55;12.85;;;4.10;;
44774;SDS011;31340;51.402;0.016;2022-10-31T00:11:24;15.65;;;5.10;;
44774;SDS011;31340;51.402;0.016;2022-10-31T00:13:52;12.77;;;5.00;;
44774;SDS011;31340;51.402;0.016;2022-10-31T00:16:21;13.45;;;5.18;;
44774;SDS011;31340;51.402;0.016;2022-10-31T00:18:52;18.60;;;5.97;;
44774;SDS011;31340;51.402;0.016;2022-10-31T00:23:51;12.55;;;5.05;;
44774;SDS011;31340;51.402;0.016;2022-10-31T00:26:20;12.77;;;5.15;;
44774;SDS011;31340;51.402;0.016;2022-10-31T00:28:48;17.33;;;5.00;;
44774;SDS011;31340;51.402;0.016;2022-10-31T00:31:18;16.75;;;6.00;;
44774;SDS011;31340;51.402;0.016;2022-10-31T00:33:47;16.75;;;6.28;;
44774;SDS011;31340;51.402;0.016;2022-10-31T00:36:18;19.00;;;6.38;;
44774;SDS011;31340;51.402;0.016;2022-10-31T00:38:47;18.27;;;6.37;;
44774;SDS011;31340;51.402;0.016;2022-10-31T00:41:16;17.05;;;6.18;;
44774;SDS011;31340;51.402;0.016;2022-10-31T00:43:45;15.60;;;5.97;;
44774;SDS011;31340;51.402;0.016;2022-10-31T00:46:13;19.50;;;5.45;;
44774;SDS011;31340;51.402;0.016;2022-10-31T00:48:42;15.75;;;5.00;;
44774;SDS011;31340;51.402;0.016;2022-10-31T00:51:10;16.65;;;4.68;;
44774;SDS011;31340;51.402;0.016;2022-10-31T00:56:10;13.98;;;4.55;;
44774;SDS011;31340;51.402;0.016;2022-10-31T00:58:39;12.02;;;4.00;;
44774;SDS011;31340;51.402;0.016;2022-10-31T01:01:08;13.63;;;4.00;;
44774;SDS011;31340;51.402;0.016;2022-10-31T01:03:36;13.32;;;3.60;;
44774;SDS011;31340;51.402;0.016;2022-10-31T01:06:10;11.90;;;3.83;;
44774;SDS011;31340;51.402;0.016;2022-10-31T01:08:39;19.27;;;4.10;;
44774;SDS011;31340;51.402;0.016;2022-10-31T01:11:18;19.35;;;4.20;;
44774;SDS011;31340;51.402;0.016;2022-10-31T01:13:47;10.82;;;3.60;;
44774;SDS011;31340;51.402;0.016;2022-10-31T01:16:19;11.02;;;3.88;;
44774;SDS011;31340;51.402;0.016;2022-10-31T01:18:50;17.45;;;4.68;;
44774;SDS011;31340;51.402;0.016;2022-10-31T01:21:20;11.90;;;3.70;;
44774;SDS011;31340;51.402;0.016;2022-10-31T01:23:50;11.30;;;3.88;;
44774;SDS011;31340;51.402;0.016;2022-10-31T01:26:22;17.38;;;4.32;;
44774;SDS011;31340;51.402;0.016;2022-10-31T01:28:54;30.02;;;4.22;;
44774;SDS011;31340;51.402;0.016;2022-10-31T01:31:25;12.13;;;4.03;;
44774;SDS011;31340;51.402;0.016;2022-10-31T01:33:55;15.93;;;4.28;;
44774;SDS011;31340;51.402;0.016;2022-10-31T01:36:28;15.75;;;4.28;;
44774;SDS011;31340;51.402;0.016;2022-10-31T01:39:02;21.98;;;4.55;;
44774;SDS011;31340;51.402;0.016;2022-10-31T01:41:35;10.82;;;3.65;;
44774;SDS011;31340;51.402;0.016;2022-10-31T01:46:47;18.23;;;4.05;;
44774;SDS011;31340;51.402;0.016;2022-10-31T01:51:57;18.67;;;3.60;;
44774;SDS011;31340;51.402;0.016;2022-10-31T01:54:58;14.10;;;3.53;;
44774;SDS011;31340;51.402;0.016;2022-10-31T01:57:34;10.90;;;3.58;;
44774;SDS011;31340;51.402;0.016;2022-10-31T02:00:06;9.90;;;3.63;;
44774;SDS011;31340;51.402;0.016;2022-10-31T02:02:42;20.48;;;4.43;;
44774;SDS011;31340;51.402;0.016;2022-10-31T02:05:12;10.13;;;3.63;;
44774;SDS011;31340;51.402;0.016;2022-10-31T02:10:49;11.43;;;3.00;;
44774;SDS011;31340;51.402;0.016;2022-10-31T02:13:18;9.98;;;2.85;;
44774;SDS011;31340;51.402;0.016;2022-10-31T02:15:49;15.60;;;3.53;;
44774;SDS011;31340;51.402;0.016;2022-10-31T02:18:20;13.93;;;3.50;;
44774;SDS011;31340;51.402;0.016;2022-10-31T02:23:39;12.77;;;3.00;;
44774;SDS011;31340;51.402;0.016;2022-10-31T02:31:29;14.13;;;2.92;;
44774;SDS011;31340;51.402;0.016;2022-10-31T02:39:23;16.50;;;3.35;;
44774;SDS011;31340;51.402;0.016;2022-10-31T02:42:07;12.57;;;3.38;;
44774;SDS011;31340;51.402;0.016;2022-10-31T02:44:45;16.98;;;3.92;;
44774;SDS011;31340;51.402;0.016;2022-10-31T02:47:29;17.40;;;4.53;;
44774;SDS011;31340;51.402;0.016;2022-10-31T02:50:04;16.50;;;4.45;;
44774;SDS011;31340;51.402;0.016;2022-10-31T02:53:02;11.43;;;4.10;;
44774;SDS011;31340;51.402;0.016;2022-10-31T02:58:05;15.35;;;3.72;;
44774;SDS011;31340;51.402;0.016;2022-10-31T03:00:41;12.98;;;4.18;;
44774;SDS011;31340;51.402;0.016;2022-10-31T03:06:37;11.10;;;3.38;;
44774;SDS011;31340;51.402;0.016;2022-10-31T03:14:48;10.40;;;3.20;;
44774;SDS011;31340;51.402;0.016;2022-10-31T03:18:05;14.80;;;3.75;;
44774;SDS011;31340;51.402;0.016;2022-10-31T03:20:37;22.20;;;4.32;;
44774;SDS011;31340;51.402;0.016;2022-10-31T03:23:10;11.77;;;3.67;;
44774;SDS011;31340;51.402;0.016;2022-10-31T03:25:41;12.05;;;3.03;;
44774;SDS011;31340;51.402;0.016;2022-10-31T03:28:12;21.05;;;3.97;;
44774;SDS011;31340;51.402;0.016;2022-10-31T03:30:45;20.45;;;5.03;;
44774;SDS011;31340;51.402;0.016;2022-10-31T03:33:15;16.48;;;3.65;;
44774;SDS011;31340;51.402;0.016;2022-10-31T03:35:48;16.77;;;3.50;;
44774;SDS011;31340;51.402;0.016;2022-10-31T03:38:18;12.85;;;3.67;;
44774;SDS011;31340;51.402;0.016;2022-10-31T03:40:47;20.15;;;3.97;;
44774;SDS011;31340;51.402;0.016;2022-10-31T03:43:19;17.83;;;3.13;;
44774;SDS011;31340;51.402;0.016;2022-10-31T03:45:52;14.18;;;2.95;;
44774;SDS011;31340;51.402;0.016;2022-10-31T03:48:20;14.63;;;3.67;;
44774;SDS011;31340;51.402;0.016;2022-10-31T03:56:53;14.38;;;3.70;;
44774;SDS011;31340;51.402;0.016;2022-10-31T03:59:33;13.82;;;4.18;;
44774;SDS011;31340;51.402;0.016;2022-10-31T04:02:09;14.35;;;3.40;;
44774;SDS011;31340;51.402;0.016;2022-10-31T04:04:43;21.45;;;4.22;;
44774;SDS011;31340;51.402;0.016;2022-10-31T04:07:12;18.30;;;3.80;;
44774;SDS011;31340;51.402;0.016;2022-10-31T04:09:43;20.92;;;4.13;;
44774;SDS011;31340;51.402;0.016;2022-10-31T04:12:14;17.33;;;3.50;;
44774;SDS011;31340;51.402;0.016;2022-10-31T04:15:08;14.65;;;3.38;;
44774;SDS011;31340;51.402;0.016;2022-10-31T04:17:40;17.65;;;3.42;;
44774;SDS011;31340;51.402;0.016;2022-10-31T04:20:13;14.05;;;3.00;;
44774;SDS011;31340;51.402;0.016;2022-10-31T04:22:44;14.05;;;3.35;;
44774;SDS011;31340;51.402;0.016;2022-10-31T04:25:12;15.35;;;3.47;;
44774;SDS011;31340;51.402;0.016;2022-10-31T04:27:40;17.95;;;3.35;;
44774;SDS011;31340;51.402;0.016;2022-10-31T04:30:09;13.45;;;3.40;;
44774;SDS011;31340;51.402;0.016;2022-10-31T04:32:39;19.30;;;3.65;;
44774;SDS011;31340;51.402;0.016;2022-10-31T04:35:08;19.40;;;3.35;;
44774;SDS011;31340;51.402;0.016;2022-10-31T04:37:37;14.80;;;3.00;;
44774;SDS011;31340;51.402;0.016;2022-10-31T04:40:05;12.50;;;3.00;;
44774;SDS011;31340;51.402;0.016;2022-10-31T04:42:52;15.13;;;3.13;;
44774;SDS011;31340;51.402;0.016;2022-10-31T04:45:20;24.13;;;4.20;;
44774;SDS011;31340;51.402;0.016;2022-10-31T04:47:51;21.48;;;4.40;;
44774;SDS011;31340;51.402;0.016;2022-10-31T04:52:50;25.30;;;5.43;;
44774;SDS011;31340;51.402;0.016;2022-10-31T04:55:23;23.30;;;4.97;;
44774;SDS011;31340;51.402;0.016;2022-10-31T04:58:10;25.27;;;4.93;;
44774;SDS011;31340;51.402;0.016;2022-10-31T05:00:38;15.25;;;4.75;;
44774;SDS011;31340;51.402;0.016;2022-10-31T05:03:06;31.63;;;5.40;;
44774;SDS011;31340;51.402;0.016;2022-10-31T05:05:34;23.60;;;4.53;;
44774;SDS011;31340;51.402;0.016;2022-10-31T05:08:03;18.02;;;3.75;;
44774;SDS011;31340;51.402;0.016;2022-10-31T05:10:31;25.05;;;4.38;;
44774;SDS011;31340;51.402;0.016;2022-10-31T05:13:01;30.50;;;4.57;;
44774;SDS011;31340;51.402;0.016;2022-10-31T05:15:49;29.77;;;5.30;;
44774;SDS011;31340;51.402;0.016;2022-10-31T05:18:36;22.33;;;4.57;;
44774;SDS011;31340;51.402;0.016;2022-10-31T05:21:23;15.68;;;3.60;;
44774;SDS011;31340;51.402;0.016;2022-10-31T05:23:54;31.17;;;4.97;;
44774;SDS011;31340;51.402;0.016;2022-10-31T05:26:24;31.92;;;5.53;;
44774;SDS011;31340;51.402;0.016;2022-10-31T05:28:54;28.77;;;5.47;;
44774;SDS011;31340;51.402;0.016;2022-10-31T05:31:22;17.17;;;4.57;;
44774;SDS011;31340;51.402;0.016;2022-10-31T05:33:51;27.17;;;5.20;;
44774;SDS011;31340;51.402;0.016;2022-10-31T05:36:37;23.95;;;4.25;;
44774;SDS011;31340;51.402;0.016;2022-10-31T05:39:12;26.00;;;4.95;;
44774;SDS011;31340;51.402;0.016;2022-10-31T05:41:42;26.15;;;4.72;;
44774;SDS011;31340;51.402;0.016;2022-10-31T05:44:22;25.70;;;4.03;;
44774;SDS011;31340;51.402;0.016;2022-10-31T05:46:57;18.05;;;4.28;;
44774;SDS011;31340;51.402;0.016;2022-10-31T05:49:43;33.72;;;4.65;;
44774;SDS011;31340;51.402;0.016;2022-10-31T05:52:37;36.72;;;5.38;;
44774;SDS011;31340;51.402;0.016;2022-10-31T05:55:20;28.90;;;5.55;;
44774;SDS011;31340;51.402;0.016;2022-10-31T05:58:14;22.23;;;4.70;;
44774;SDS011;31340;51.402;0.016;2022-10-31T06:00:49;34.97;;;5.97;;
44774;SDS011;31340;51.402;0.016;2022-10-31T06:03:17;29.52;;;4.82;;
44774;SDS011;31340;51.402;0.016;2022-10-31T06:05:51;29.75;;;5.30;;
44774;SDS011;31340;51.402;0.016;2022-10-31T06:08:24;32.75;;;6.00;;
44774;SDS011;31340;51.402;0.016;2022-10-31T06:10:54;34.72;;;6.05;;
44774;SDS011;31340;51.402;0.016;2022-10-31T06:13:41;23.65;;;4.68;;
44774;SDS011;31340;51.402;0.016;2022-10-31T06:16:16;27.95;;;4.55;;
44774;SDS011;31340;51.402;0.016;2022-10-31T06:18:45;24.00;;;5.00;;
44774;SDS011;31340;51.402;0.016;2022-10-31T06:21:13;26.58;;;5.38;;
44774;SDS011;31340;51.402;0.016;2022-10-31T06:23:45;26.45;;;5.75;;
44774;SDS011;31340;51.402;0.016;2022-10-31T06:26:39;22.10;;;4.25;;
44774;SDS011;31340;51.402;0.016;2022-10-31T06:29:08;26.13;;;4.82;;
44774;SDS011;31340;51.402;0.016;2022-10-31T06:31:58;17.07;;;3.70;;
44774;SDS011;31340;51.402;0.016;2022-10-31T06:34:29;21.52;;;4.30;;
44774;SDS011;31340;51.402;0.016;2022-10-31T06:36:57;23.80;;;5.25;;
44774;SDS011;31340;51.402;0.016;2022-10-31T06:39:27;18.80;;;4.13;;
44774;SDS011;31340;51.402;0.016;2022-10-31T06:41:55;24.67;;;4.57;;
44774;SDS011;31340;51.402;0.016;2022-10-31T06:44:25;27.67;;;4.07;;
44774;SDS011;31340;51.402;0.016;2022-10-31T06:46:59;22.73;;;4.75;;
44774;SDS011;31340;51.402;0.016;2022-10-31T06:52:21;19.40;;;4.82;;
44774;SDS011;31340;51.402;0.016;2022-10-31T06:54:50;14.20;;;3.67;;
44774;SDS011;31340;51.402;0.016;2022-10-31T06:57:19;18.50;;;4.20;;
44774;SDS011;31340;51.402;0.016;2022-10-31T06:59:46;16.52;;;3.47;;
44774;SDS011;31340;51.402;0.016;2022-10-31T07:02:21;16.77;;;5.35;;
44774;SDS011;31340;51.402;0.016;2022-10-31T07:04:49;21.83;;;4.55;;
44774;SDS011;31340;51.402;0.016;2022-10-31T07:07:18;23.08;;;4.78;;
44774;SDS011;31340;51.402;0.016;2022-10-31T07:09:49;19.02;;;4.35;;
44774;SDS011;31340;51.402;0.016;2022-10-31T07:12:21;17.35;;;4.50;;
44774;SDS011;31340;51.402;0.016;2022-10-31T07:14:57;14.65;;;3.83;;
44774;SDS011;31340;51.402;0.016;2022-10-31T07:17:25;19.60;;;4.03;;
44774;SDS011;31340;51.402;0.016;2022-10-31T07:19:58;19.95;;;4.22;;
44774;SDS011;31340;51.402;0.016;2022-10-31T07:22:32;20.35;;;4.80;;
44774;SDS011;31340;51.402;0.016;2022-10-31T07:25:05;21.80;;;4.60;;
44774;SDS011;31340;51.402;0.016;2022-10-31T07:27:53;17.88;;;5.00;;
44774;SDS011;31340;51.402;0.016;2022-10-31T07:30:22;19.92;;;4.80;;
44774;SDS011;31340;51.402;0.016;2022-10-31T07:32:53;13.48;;;4.18;;
44774;SDS011;31340;51.402;0.016;2022-10-31T07:35:26;20.60;;;5.00;;
44774;SDS011;31340;51.402;0.016;2022-10-31T07:38:06;23.70;;;4.97;;
44774;SDS011;31340;51.402;0.016;2022-10-31T07:40:39;18.42;;;5.05;;
44774;SDS011;31340;51.402;0.016;2022-10-31T07:43:07;21.20;;;4.63;;
44774;SDS011;31340;51.402;0.016;2022-10-31T07:46:03;21.15;;;4.47;;
44774;SDS011;31340;51.402;0.016;2022-10-31T07:48:50;24.48;;;4.95;;
44774;SDS011;31340;51.402;0.016;2022-10-31T07:51:56;22.80;;;4.88;;
44774;SDS011;31340;51.402;0.016;2022-10-31T07:54:52;20.00;;;6.03;;
44774;SDS011;31340;51.402;0.016;2022-10-31T07:57:23;16.80;;;5.87;;
44774;SDS011;31340;51.402;0.016;2022-10-31T07:59:52;28.25;;;7.10;;
44774;SDS011;31340;51.402;0.016;2022-10-31T08:02:19;24.80;;;7.00;;
44774;SDS011;31340;51.402;0.016;2022-10-31T08:05:05;26.67;;;7.25;;
44774;SDS011;31340;51.402;0.016;2022-10-31T08:07:51;26.08;;;7.15;;
44774;SDS011;31340;51.402;0.016;2022-10-31T08:12:57;23.08;;;6.90;;
44774;SDS011;31340;51.402;0.016;2022-10-31T08:15:27;26.55;;;8.02;;
44774;SDS011;31340;51.402;0.016;2022-10-31T08:17:58;24.42;;;7.10;;
44774;SDS011;31340;51.402;0.016;2022-10-31T08:20:27;38.17;;;7.53;;
44774;SDS011;31340;51.402;0.016;2022-10-31T08:23:04;30.67;;;7.50;;
44774;SDS011;31340;51.402;0.016;2022-10-31T08:25:34;26.42;;;5.10;;
44774;SDS011;31340;51.402;0.016;2022-10-31T08:28:05;22.70;;;5.47;;
44774;SDS011;31340;51.402;0.016;2022-10-31T08:30:34;23.40;;;5.47;;
44774;SDS011;31340;51.402;0.016;2022-10-31T08:33:29;25.48;;;4.88;;
44774;SDS011;31340;51.402;0.016;2022-10-31T08:36:25;21.98;;;4.20;;
44774;SDS011;31340;51.402;0.016;2022-10-31T08:39:13;29.00;;;4.72;;
44774;SDS011;31340;51.402;0.016;2022-10-31T08:41:40;23.40;;;3.78;;
44774;SDS011;31340;51.402;0.016;2022-10-31T08:46:39;22.73;;;3.83;;
44774;SDS011;31340;51.402;0.016;2022-10-31T08:49:06;28.85;;;4.72;;
44774;SDS011;31340;51.402;0.016;2022-10-31T08:51:34;16.58;;;3.38;;
44774;SDS011;31340;51.402;0.016;2022-10-31T08:54:02;19.95;;;3.75;;
44774;SDS011;31340;51.402;0.016;2022-10-31T08:56:32;20.75;;;4.25;;
44774;SDS011;31340;51.402;0.016;2022-10-31T08:59:03;24.55;;;3.58;;
44774;SDS011;31340;51.402;0.016;2022-10-31T09:01:44;19.15;;;4.30;;
44774;SDS011;31340;51.402;0.016;2022-10-31T09:04:12;26.15;;;4.18;;
44774;SDS011;31340;51.402;0.016;2022-10-31T09:06:40;17.67;;;3.95;;
44774;SDS011;31340;51.402;0.016;2022-10-31T09:09:27;15.23;;;3.25;;
44774;SDS011;31340;51.402;0.016;2022-10-31T09:11:54;21.90;;;3.75;;
44774;SDS011;31340;51.402;0.016;2022-10-31T09:14:40;22.25;;;3.80;;
44774;SDS011;31340;51.402;0.016;2022-10-31T09:17:21;19.10;;;2.95;;
44774;SDS011;31340;51.402;0.016;2022-10-31T09:20:28;18.95;;;3.55;;
44774;SDS011;31340;51.402;0.016;2022-10-31T09:22:57;20.90;;;3.30;;
44774;SDS011;31340;51.402;0.016;2022-10-31T09:25:27;17.45;;;3.35;;
44774;SDS011;31340;51.402;0.016;2022-10-31T09:28:16;18.27;;;3.17;;
44774;SDS011;31340;51.402;0.016;2022-10-31T09:30:46;20.98;;;2.65;;
44774;SDS011;31340;51.402;0.016;2022-10-31T09:33:31;12.15;;;2.45;;
44774;SDS011;31340;51.402;0.016;2022-10-31T09:36:19;10.82;;;2.83;;
44774;SDS011;31340;51.402;0.016;2022-10-31T09:38:46;20.15;;;3.22;;
44774;SDS011;31340;51.402;0.016;2022-10-31T09:41:19;16.30;;;3.03;;
44774;SDS011;31340;51.402;0.016;2022-10-31T09:46:51;12.15;;;2.45;;
44774;SDS011;31340;51.402;0.016;2022-10-31T09:52:17;18.33;;;3.80;;
44774;SDS011;31340;51.402;0.016;2022-10-31T09:57:44;17.92;;;4.20;;
44774;SDS011;31340;51.402;0.016;2022-10-31T10:00:18;18.88;;;3.08;;
44774;SDS011;31340;51.402;0.016;2022-10-31T10:02:49;17.65;;;3.08;;
44774;SDS011;31340;51.402;0.016;2022-10-31T10:05:36;15.88;;;2.38;;
44774;SDS011;31340;51.402;0.016;2022-10-31T10:08:21;20.88;;;2.67;;
44774;SDS011;31340;51.402;0.016;2022-10-31T10:11:07;10.73;;;2.50;;
44774;SDS011;31340;51.402;0.016;2022-10-31T10:16:57;19.30;;;3.35;;
44774;SDS011;31340;51.402;0.016;2022-10-31T10:25:00;10.50;;;2.75;;
44774;SDS011;31340;51.402;0.016;2022-10-31T10:30:42;16.88;;;2.90;;
44774;SDS011;31340;51.402;0.016;2022-10-31T10:33:23;16.13;;;2.80;;
44774;SDS011;31340;51.402;0.016;2022-10-31T10:36:05;12.45;;;2.50;;
44774;SDS011;31340;51.402;0.016;2022-10-31T10:38:50;14.80;;;2.80;;
44774;SDS011;31340;51.402;0.016;2022-10-31T10:41:29;13.85;;;2.65;;
44774;SDS011;31340;51.402;0.016;2022-10-31T10:44:00;13.50;;;2.80;;
44774;SDS011;31340;51.402;0.016;2022-10-31T10:46:42;15.23;;;2.92;;
44774;SDS011;31340;51.402;0.016;2022-10-31T10:49:40;11.45;;;2.50;;
44774;SDS011;31340;51.402;0.016;2022-10-31T10:52:24;16.15;;;2.88;;
44774;SDS011;31340;51.402;0.016;2022-10-31T10:55:39;14.98;;;2.95;;
44774;SDS011;31340;51.402;0.016;2022-10-31T10:58:10;14.23;;;2.70;;
44774;SDS011;31340;51.402;0.016;2022-10-31T11:00:39;12.98;;;2.70;;
44774;SDS011;31340;51.402;0.016;2022-10-31T11:03:09;12.43;;;2.72;;
44774;SDS011;31340;51.402;0.016;2022-10-31T11:05:53;17.13;;;4.00;;
44774;SDS011;31340;51.402;0.016;2022-10-31T11:08:29;13.20;;;2.75;;
44774;SDS011;31340;51.402;0.016;2022-10-31T11:11:03;10.30;;;2.50;;
44774;SDS011;31340;51.402;0.016;2022-10-31T11:13:34;7.35;;;2.40;;
44774;SDS011;31340;51.402;0.016;2022-10-31T11:16:04;10.68;;;2.50;;
44774;SDS011;31340;51.402;0.016;2022-10-31T11:18:42;9.88;;;2.40;;
44774;SDS011;31340;51.402;0.016;2022-10-31T11:26:37;9.23;;;2.40;;
44774;SDS011;31340;51.402;0.016;2022-10-31T11:29:17;11.95;;;2.35;;
44774;SDS011;31340;51.402;0.016;2022-10-31T11:31:50;12.13;;;2.90;;
44774;SDS011;31340;51.402;0.016;2022-10-31T11:37:01;11.98;;;2.00;;
44774;SDS011;31340;51.402;0.016;2022-10-31T11:39:45;9.77;;;2.47;;
44774;SDS011;31340;51.402;0.016;2022-10-31T11:42:21;10.65;;;2.47;;
44774;SDS011;31340;51.402;0.016;2022-10-31T11:44:54;11.75;;;2.35;;
44774;SDS011;31340;51.402;0.016;2022-10-31T11:47:29;11.13;;;2.40;;
44774;SDS011;31340;51.402;0.016;2022-10-31T11:50:00;11.65;;;2.35;;
44774;SDS011;31340;51.402;0.016;2022-10-31T11:52:36;6.35;;;1.70;;
44774;SDS011;31340;51.402;0.016;2022-10-31T11:57:44;8.60;;;1.73;;
44774;SDS011;31340;51.402;0.016;2022-10-31T12:05:56;6.80;;;2.70;;
44774;SDS011;31340;51.402;0.016;2022-10-31T12:08:25;9.77;;;3.38;;
44774;SDS011;31340;51.402;0.016;2022-10-31T12:16:21;21.98;;;9.52;;
44774;SDS011;31340;51.402;0.016;2022-10-31T12:19:19;7.45;;;2.05;;
44774;SDS011;31340;51.402;0.016;2022-10-31T12:22:33;7.40;;;1.88;;
44774;SDS011;31340;51.402;0.016;2022-10-31T12:24:55;5.65;;;2.00;;
44774;SDS011;31340;51.402;0.016;2022-10-31T12:27:48;8.52;;;2.00;;
44774;SDS011;31340;51.402;0.016;2022-10-31T12:30:46;6.47;;;1.90;;
44774;SDS011;31340;51.402;0.016;2022-10-31T12:35:51;6.88;;;1.65;;
44774;SDS011;31340;51.402;0.016;2022-10-31T12:47:27;8.93;;;1.95;;
44774;SDS011;31340;51.402;0.016;2022-10-31T12:52:50;12.90;;;2.75;;
44774;SDS011;31340;51.402;0.016;2022-10-31T12:58:13;10.82;;;3.03;;
44774;SDS011;31340;51.402;0.016;2022-10-31T13:00:44;11.93;;;3.08;;
44774;SDS011;31340;51.402;0.016;2022-10-31T13:06:03;9.27;;;2.42;;
44774;SDS011;31340;51.402;0.016;2022-10-31T13:08:43;8.85;;;2.53;;
44774;SDS011;31340;51.402;0.016;2022-10-31T13:11:25;10.38;;;2.60;;
44774;SDS011;31340;51.402;0.016;2022-10-31T13:16:56;8.88;;;2.60;;
44774;SDS011;31340;51.402;0.016;2022-10-31T13:19:27;10.55;;;2.70;;
44774;SDS011;31340;51.402;0.016;2022-10-31T13:29:54;4.95;;;2.08;;
44774;SDS011;31340;51.402;0.016;2022-10-31T13:37:56;5.22;;;1.77;;
44774;SDS011;31340;51.402;0.016;2022-10-31T13:43:23;5.38;;;1.60;;
44774;SDS011;31340;51.402;0.016;2022-10-31T13:45:56;7.72;;;1.83;;
44774;SDS011;31340;51.402;0.016;2022-10-31T13:48:34;7.30;;;1.90;;
44774;SDS011;31340;51.402;0.016;2022-10-31T13:51:05;12.25;;;2.40;;
44774;SDS011;31340;51.402;0.016;2022-10-31T13:53:35;10.18;;;2.40;;
44774;SDS011;31340;51.402;0.016;2022-10-31T13:58:36;10.88;;;2.92;;
44774;SDS011;31340;51.402;0.016;2022-10-31T14:03:38;8.55;;;2.85;;
44774;SDS011;31340;51.402;0.016;2022-10-31T14:06:44;8.32;;;1.95;;
44774;SDS011;31340;51.402;0.016;2022-10-31T14:17:49;6.18;;;1.80;;
44774;SDS011;31340;51.402;0.016;2022-10-31T14:20:25;7.07;;;1.63;;
44774;SDS011;31340;51.402;0.016;2022-10-31T14:23:09;6.15;;;1.85;;
44774;SDS011;31340;51.402;0.016;2022-10-31T14:25:52;6.72;;;2.03;;
44774;SDS011;31340;51.402;0.016;2022-10-31T14:28:33;6.30;;;1.73;;
44774;SDS011;31340;51.402;0.016;2022-10-31T14:31:02;6.72;;;2.33;;
44774;SDS011;31340;51.402;0.016;2022-10-31T14:33:29;9.70;;;2.13;;
44774;SDS011;31340;51.402;0.016;2022-10-31T14:38:49;11.07;;;2.40;;
44774;SDS011;31340;51.402;0.016;2022-10-31T14:41:32;6.53;;;2.28;;
44774;SDS011;31340;51.402;0.016;2022-10-31T14:44:20;5.30;;;2.00;;
44774;SDS011;31340;51.402;0.016;2022-10-31T14:49:57;8.43;;;2.40;;
44774;SDS011;31340;51.402;0.016;2022-10-31T14:52:51;5.97;;;2.30;;
44774;SDS011;31340;51.402;0.016;2022-10-31T14:55:23;6.65;;;2.45;;
44774;SDS011;31340;51.402;0.016;2022-10-31T14:57:55;12.02;;;3.03;;
44774;SDS011;31340;51.402;0.016;2022-10-31T15:00:28;9.23;;;2.70;;
44774;SDS011;31340;51.402;0.016;2022-10-31T15:03:02;13.25;;;2.83;;
44774;SDS011;31340;51.402;0.016;2022-10-31T15:05:50;6.90;;;2.40;;
44774;SDS011;31340;51.402;0.016;2022-10-31T15:08:29;9.38;;;3.17;;
44774;SDS011;31340;51.402;0.016;2022-10-31T15:11:02;11.15;;;2.88;;
44774;SDS011;31340;51.402;0.016;2022-10-31T15:13:44;8.50;;;3.00;;
44774;SDS011;31340;51.402;0.016;2022-10-31T15:19:12;10.43;;;2.25;;
44774;SDS011;31340;51.402;0.016;2022-10-31T15:21:47;7.07;;;2.55;;
44774;SDS011;31340;51.402;0.016;2022-10-31T15:24:18;6.63;;;2.67;;
44774;SDS011;31340;51.402;0.016;2022-10-31T15:26:49;13.65;;;2.75;;
44774;SDS011;31340;51.402;0.016;2022-10-31T15:29:19;9.60;;;2.85;;
44774;SDS011;31340;51.402;0.016;2022-10-31T15:32:32;7.15;;;2.53;;
44774;SDS011;31340;51.402;0.016;2022-10-31T15:34:50;7.72;;;2.90;;
44774;SDS011;31340;51.402;0.016;2022-10-31T15:37:20;9.32;;;3.15;;
44774;SDS011;31340;51.402;0.016;2022-10-31T15:39:49;11.63;;;2.90;;
44774;SDS011;31340;51.402;0.016;2022-10-31T15:42:30;10.07;;;3.17;;
44774;SDS011;31340;51.402;0.016;2022-10-31T15:45:15;10.02;;;2.78;;
44774;SDS011;31340;51.402;0.016;2022-10-31T15:47:45;9.30;;;2.55;;
44774;SDS011;31340;51.402;0.016;2022-10-31T15:50:30;9.02;;;2.55;;
44774;SDS011;31340;51.402;0.016;2022-10-31T15:53:01;10.93;;;3.47;;
44774;SDS011;31340;51.402;0.016;2022-10-31T15:55:33;7.82;;;3.35;;
44774;SDS011;31340;51.402;0.016;2022-10-31T15:58:13;9.50;;;3.05;;
44774;SDS011;31340;51.402;0.016;2022-10-31T16:00:43;9.00;;;3.17;;
44774;SDS011;31340;51.402;0.016;2022-10-31T16:05:52;10.98;;;3.20;;
44774;SDS011;31340;51.402;0.016;2022-10-31T16:10:55;12.93;;;4.03;;
44774;SDS011;31340;51.402;0.016;2022-10-31T16:13:36;9.55;;;4.18;;
44774;SDS011;31340;51.402;0.016;2022-10-31T16:16:11;10.32;;;4.07;;
44774;SDS011;31340;51.402;0.016;2022-10-31T16:19:01;6.43;;;3.88;;
44774;SDS011;31340;51.402;0.016;2022-10-31T16:21:33;10.73;;;4.18;;
44774;SDS011;31340;51.402;0.016;2022-10-31T16:24:47;9.40;;;4.13;;
44774;SDS011;31340;51.402;0.016;2022-10-31T16:27:02;14.80;;;4.10;;
44774;SDS011;31340;51.402;0.016;2022-10-31T16:29:41;8.90;;;3.90;;
44774;SDS011;31340;51.402;0.016;2022-10-31T16:37:38;14.80;;;5.30;;
44774;SDS011;31340;51.402;0.016;2022-10-31T16:40:07;16.95;;;5.10;;
44774;SDS011;31340;51.402;0.016;2022-10-31T16:42:37;11.02;;;5.05;;
44774;SDS011;31340;51.402;0.016;2022-10-31T16:45:05;12.32;;;5.38;;
44774;SDS011;31340;51.402;0.016;2022-10-31T16:47:33;14.88;;;5.43;;
44774;SDS011;31340;51.402;0.016;2022-10-31T16:50:01;19.17;;;5.75;;
44774;SDS011;31340;51.402;0.016;2022-10-31T16:52:28;13.63;;;5.28;;
44774;SDS011;31340;51.402;0.016;2022-10-31T16:55:17;9.40;;;4.65;;
44774;SDS011;31340;51.402;0.016;2022-10-31T16:57:50;12.60;;;5.47;;
44774;SDS011;31340;51.402;0.016;2022-10-31T17:00:22;14.52;;;5.50;;
44774;SDS011;31340;51.402;0.016;2022-10-31T17:02:53;19.48;;;5.97;;
44774;SDS011;31340;51.402;0.016;2022-10-31T17:05:26;17.95;;;6.93;;
44774;SDS011;31340;51.402;0.016;2022-10-31T17:07:56;12.10;;;6.35;;
44774;SDS011;31340;51.402;0.016;2022-10-31T17:10:25;13.23;;;6.07;;
44774;SDS011;31340;51.402;0.016;2022-10-31T17:12:53;13.35;;;5.95;;
44774;SDS011;31340;51.402;0.016;2022-10-31T17:15:24;15.77;;;6.82;;
44774;SDS011;31340;51.402;0.016;2022-10-31T17:17:54;23.73;;;7.43;;
44774;SDS011;31340;51.402;0.016;2022-10-31T17:20:23;14.70;;;6.38;;
44774;SDS011;31340;51.402;0.016;2022-10-31T17:22:54;16.13;;;6.53;;
44774;SDS011;31340;51.402;0.016;2022-10-31T17:25:24;25.23;;;9.77;;
44774;SDS011;31340;51.402;0.016;2022-10-31T17:27:54;17.02;;;9.18;;
44774;SDS011;31340;51.402;0.016;2022-10-31T17:30:22;23.50;;;12.13;;
44774;SDS011;31340;51.402;0.016;2022-10-31T17:32:50;31.58;;;12.15;;
44774;SDS011;31340;51.402;0.016;2022-10-31T17:35:18;35.05;;;14.00;;
44774;SDS011;31340;51.402;0.016;2022-10-31T17:37:46;24.50;;;11.07;;
44774;SDS011;31340;51.402;0.016;2022-10-31T17:40:16;34.08;;;11.43;;
44774;SDS011;31340;51.402;0.016;2022-10-31T17:42:49;21.23;;;10.97;;
44774;SDS011;31340;51.402;0.016;2022-10-31T17:45:22;23.38;;;11.95;;
44774;SDS011;31340;51.402;0.016;2022-10-31T17:47:52;17.45;;;9.98;;
44774;SDS011;31340;51.402;0.016;2022-10-31T17:50:21;24.48;;;10.77;;
44774;SDS011;31340;51.402;0.016;2022-10-31T17:52:50;23.90;;;12.27;;
44774;SDS011;31340;51.402;0.016;2022-10-31T17:55:19;23.15;;;12.75;;
44774;SDS011;31340;51.402;0.016;2022-10-31T17:57:47;25.35;;;13.63;;
44774;SDS011;31340;51.402;0.016;2022-10-31T18:00:16;21.55;;;13.05;;
44774;SDS011;31340;51.402;0.016;2022-10-31T18:02:45;32.53;;;16.15;;
44774;SDS011;31340;51.402;0.016;2022-10-31T18:05:13;29.52;;;14.48;;
44774;SDS011;31340;51.402;0.016;2022-10-31T18:07:40;37.17;;;17.58;;
44774;SDS011;31340;51.402;0.016;2022-10-31T18:10:08;32.88;;;16.70;;
44774;SDS011;31340;51.402;0.016;2022-10-31T18:12:36;29.95;;;16.88;;